Página principal
METAR-TAF:

METAR-TAF

Aeroportos :

Tashkent, Uzbequistão

Aeroporto Internacional de Tashkent

latitude: 41-16N, longitude: 069-16E, altura: 489 m

Observação actual do tempo

O boletim foi feito há 22 minutos, às 00:30 UTC
Vento 4 kt de norte
Temperatura 8°C
Humidade 49%
Pressão 1015 hPa
Visibilidade 10 km ou mais
sem nuvens abaixo de 1500 metros e sem cumulonimbus

METAR: UTTT 230030Z 01004KT CAVOK 08/M02 Q1015 R08R/CLRD70 NOSIG

Hora: 05:52 (00:52 UTC)

Previsão

O boletim foi feito há 1 hora e 52 minutos, às 23:00 UTC
Previsão válida de 23 às 00 UTC a 23 às 24 UTC
Vento 8 kt de este
Visibilidade: 7000 m
Temporariamente
de 23 às 00 UTC a 23 às 04 UTC
Visibilidade: 2000 m
neblina
Temporariamente
de 23 às 06 UTC a 23 às 15 UTC
Vento 14 kt de oeste
Nuvens dispersasa uma altura de 6000 ft, Cumulonimbus.
Nuvens fragmentadasa uma altura de 10000 ft

TAF: UTTT 222300Z 2300/2324 08008KT 7000 NSC TEMPO 2300/2304 2000 BR TEMPO 2306/2315 26014KT SCT060CB BKN100

Observações e previsões do tempo de mais de 4000 aeroportos (mensagens METAR e TAF).

As estações disponíveis são os pontos amarelos e vermelhos sobre o mapa.

Mova o rato sobre o mapa para ver o nome da estação.

Depois clique no ponto para visualizar as observações e previsões meteorológicas.

Para alterar o mapa : clique nos botões verdes com uma cruz preta para aumentar o zoom; no botão verde com uma pitada de zoom; ou nas setas verdes para mapas adjacentes.


METAR-TAF: